Time;durP1;ratioP1;P1;durP2;ratioP2;P2;SDS_P1;SDS_P2;PMS_P1;PMS_P2;Temp;Humidity;BMP_temperature;BMP_pressure;BME280_temperature;BME280_humidity;BME280_pressure;Samples;Min_cycle;Max_cycle;Signal;HPM_P1;HPM_P2
2022/08/30 00:01:05;;;;;;;;;;;;;;;17.05;94.28;98521.72;4921020;29;20347;-91
2022/08/30 00:03:35;;;;;;;;;;;;;;;17.04;94.51;98517.34;4920357;29;19931;-90
2022/08/30 00:06:05;;;;;;;;;;;;;;;17.00;94.57;98527.25;4922985;29;19986;-91
2022/08/30 00:08:33;;;;;;;;;;;;;;;16.98;94.84;98513.91;4907574;29;19931;-90
2022/08/30 00:11:00;;;;;;;;;;;;;;;16.97;95.04;98520.47;4907291;29;19981;-92
2022/08/30 00:13:28;;;;;;;;;;;;;;;16.99;95.30;98525.63;4885228;29;19930;-92
2022/08/30 00:15:55;;;;;;;;;;;;;;;16.98;95.29;98521.28;4917409;29;19938;-92
2022/08/30 00:18:23;;;;;;;;;;;;;;;16.99;95.36;98515.53;4900250;29;19940;-92
2022/08/30 00:20:50;;;;;;;;;;;;;;;16.99;95.40;98523.72;4900659;29;19935;-92
2022/08/30 00:23:18;;;;;;;;;;;;;;;17.00;95.38;98521.78;4916298;29;20043;-92
2022/08/30 00:25:45;;;;;;;;;;;;;;;16.97;95.44;98516.94;4916052;29;20218;-90
2022/08/30 00:28:12;;;;;;;;;;;;;;;16.97;95.57;98509.56;4916897;29;19931;-92
2022/08/30 00:30:40;;;;;;;;;;;;;;;16.96;95.63;98521.56;4899505;29;19962;-90
2022/08/30 00:33:07;;;;;;;;;;;;;;;16.95;95.87;98519.16;4884280;29;20436;-92
2022/08/30 00:35:34;;;;;;;;;;;;;;;16.96;96.15;98518.03;4899446;29;19986;-92
2022/08/30 00:38:01;;;;;;;;;;;;;;;16.97;96.07;98512.31;4902863;29;19931;-92
2022/08/30 00:40:29;;;;;;;;;;;;;;;16.98;96.13;98510.38;4902972;29;19935;-93
2022/08/30 00:42:57;;;;;;;;;;;;;;;17.01;96.09;98509.78;4918310;29;19930;-92
2022/08/30 00:45:32;;;;;;;;;;;;;;;17.02;95.94;98514.13;4935605;29;20021;-91
2022/08/30 00:47:59;;;;;;;;;;;;;;;17.03;95.86;98515.75;4934443;29;20409;-91
2022/08/30 00:50:43;;;;;;;;;;;;;;;17.02;95.83;98503.22;4933966;29;19931;-92
2022/08/30 00:53:12;;;;;;;;;;;;;;;17.03;95.88;98513.00;4935458;29;20410;-90
2022/08/30 00:55:40;;;;;;;;;;;;;;;17.01;95.94;98507.03;4919994;29;19983;-90
2022/08/30 00:58:12;;;;;;;;;;;;;;;17.00;96.17;98505.44;4936178;29;19934;-91
2022/08/30 01:00:39;;;;;;;;;;;;;;;17.00;96.20;98503.53;4934688;29;19982;-92
2022/08/30 01:03:08;;;;;;;;;;;;;;;16.99;96.40;98504.63;4903096;29;20021;-91
2022/08/30 01:05:37;;;;;;;;;;;;;;;17.02;96.41;98503.22;4935586;29;20143;-91
2022/08/30 01:08:04;;;;;;;;;;;;;;;17.03;96.40;98502.13;4943485;29;19931;-92
2022/08/30 01:10:32;;;;;;;;;;;;;;;17.03;96.40;98504.84;4913885;29;20440;-90
2022/08/30 01:12:59;;;;;;;;;;;;;;;17.00;96.34;98502.72;4913804;29;19990;-92
2022/08/30 01:15:26;;;;;;;;;;;;;;;16.98;96.70;98499.47;4934226;29;19930;-91
2022/08/30 01:17:54;;;;;;;;;;;;;;;16.97;96.90;98493.22;4935427;29;19938;-91
2022/08/30 01:20:26;;;;;;;;;;;;;;;16.98;96.96;98494.81;4950051;29;19970;-92
2022/08/30 01:22:53;;;;;;;;;;;;;;;16.97;97.16;98495.16;4918121;29;19930;-92
2022/08/30 01:25:26;;;;;;;;;;;;;;;16.98;97.12;98491.28;4918153;29;19930;-91
2022/08/30 01:28:00;;;;;;;;;;;;;;;16.97;97.39;98485.03;4935548;29;20353;-91
2022/08/30 01:30:28;;;;;;;;;;;;;;;16.95;97.32;98489.19;4950215;29;20309;-92
2022/08/30 01:32:59;;;;;;;;;;;;;;;16.93;97.40;98483.22;4935923;29;19930;-91
2022/08/30 01:35:27;;;;;;;;;;;;;;;16.87;97.73;98486.03;4920856;29;19990;-92
2022/08/30 01:37:54;;;;;;;;;;;;;;;16.85;98.22;98479.25;4935271;29;19930;-91
2022/08/30 01:40:21;;;;;;;;;;;;;;;16.83;98.37;98478.72;4934853;29;19931;-90
2022/08/30 01:42:49;;;;;;;;;;;;;;;16.79;98.48;98485.91;4937884;29;20468;-90
2022/08/30 01:45:16;;;;;;;;;;;;;;;16.73;98.94;98490.56;4929065;29;19931;-91
2022/08/30 01:47:43;;;;;;;;;;;;;;;16.68;99.07;98479.75;4938348;29;19935;-91
2022/08/30 01:50:10;;;;;;;;;;;;;;;16.65;99.58;98485.81;4938764;29;19941;-92
2022/08/30 01:52:37;;;;;;;;;;;;;;;16.65;99.95;98491.25;4938410;29;19931;-92
2022/08/30 01:55:04;;;;;;;;;;;;;;;16.71;100.00;98478.34;4937481;29;19955;-92
2022/08/30 01:57:33;;;;;;;;;;;;;;;16.69;99.54;98487.66;4935934;29;20024;-91
2022/08/30 01:59:59;;;;;;;;;;;;;;;16.71;99.73;98498.25;4921078;29;19986;-91
2022/08/30 02:02:37;;;;;;;;;;;;;;;16.67;99.66;98494.50;4921983;29;19954;-91
2022/08/30 02:05:04;;;;;;;;;;;;;;;16.65;99.88;98499.44;4921014;29;19946;-93
2022/08/30 02:07:31;;;;;;;;;;;;;;;16.64;99.86;98498.63;4926418;29;19931;-90
2022/08/30 02:09:58;;;;;;;;;;;;;;;16.56;100.00;98499.31;4920329;29;19931;-91
2022/08/30 02:12:26;;;;;;;;;;;;;;;16.54;100.00;98503.44;4920334;29;19965;-92
2022/08/30 02:14:53;;;;;;;;;;;;;;;16.51;100.00;98499.38;4935806;29;20029;-90
2022/08/30 02:17:20;;;;;;;;;;;;;;;16.42;100.00;98499.22;4935939;29;19938;-92
2022/08/30 02:19:47;;;;;;;;;;;;;;;16.36;100.00;98503.13;4935651;29;20521;-92
2022/08/30 02:22:15;;;;;;;;;;;;;;;16.35;100.00;98504.22;4936080;29;20023;-91
2022/08/30 02:24:42;;;;;;;;;;;;;;;16.28;100.00;98505.69;4935553;29;19931;-93
2022/08/30 02:27:09;;;;;;;;;;;;;;;16.21;100.00;98498.72;4936092;29;20337;-91
2022/08/30 02:29:36;;;;;;;;;;;;;;;16.19;100.00;98503.63;4919628;29;20393;-92
2022/08/30 02:32:03;;;;;;;;;;;;;;;16.18;100.00;98510.19;4906856;29;19937;-91
2022/08/30 02:34:30;;;;;;;;;;;;;;;16.15;100.00;98507.22;4940830;29;20022;-91
2022/08/30 02:36:57;;;;;;;;;;;;;;;16.08;100.00;98507.63;4937371;29;19934;-92
2022/08/30 02:39:24;;;;;;;;;;;;;;;16.09;100.00;98513.88;4938121;29;20365;-91
2022/08/30 02:41:51;;;;;;;;;;;;;;;16.07;100.00;98516.06;4924644;29;19934;-90
2022/08/30 02:44:18;;;;;;;;;;;;;;;16.03;100.00;98511.22;4944986;29;20321;-91
2022/08/30 02:46:45;;;;;;;;;;;;;;;16.03;100.00;98511.22;4947444;29;19931;-92
2022/08/30 02:49:12;;;;;;;;;;;;;;;16.03;100.00;98513.94;4917500;29;19931;-92
2022/08/30 02:51:58;;;;;;;;;;;;;;;16.01;100.00;98513.41;4919570;29;19938;-91
2022/08/30 02:54:31;;;;;;;;;;;;;;;16.02;100.00;98514.22;4917486;29;19938;-91
2022/08/30 02:56:59;;;;;;;;;;;;;;;16.03;100.00;98515.84;4917475;29;19938;-92
2022/08/30 02:59:26;;;;;;;;;;;;;;;16.04;100.00;98520.19;4901529;29;19962;-92
2022/08/30 03:01:56;;;;;;;;;;;;;;;16.07;100.00;98511.44;4901576;29;19937;-92
2022/08/30 03:04:23;;;;;;;;;;;;;;;16.08;100.00;98507.63;4918631;29;19982;-92
2022/08/30 03:06:52;;;;;;;;;;;;;;;16.16;100.00;98515.13;4921252;29;19954;-90
2022/08/30 03:09:19;;;;;;;;;;;;;;;16.16;100.00;98512.41;4937037;29;19942;-94
2022/08/30 03:11:46;;;;;;;;;;;;;;;16.20;100.00;98510.72;4920593;29;20378;-91
2022/08/30 03:14:14;;;;;;;;;;;;;;;16.25;100.00;98512.53;4937568;29;19931;-92
2022/08/30 03:16:41;;;;;;;;;;;;;;;16.28;100.00;98514.69;4936864;29;19937;-89
2022/08/30 03:19:07;;;;;;;;;;;;;;;16.34;100.00;98523.59;4936325;29;19937;-90
2022/08/30 03:21:35;;;;;;;;;;;;;;;16.34;100.00;98520.88;4936114;29;19978;-88
2022/08/30 03:24:02;;;;;;;;;;;;;;;16.31;100.00;98522.28;4935074;29;19969;-93
2022/08/30 03:26:29;;;;;;;;;;;;;;;16.32;100.00;98515.72;4935411;29;19939;-93
2022/08/30 03:28:56;;;;;;;;;;;;;;;16.37;100.00;98523.81;4935807;29;19937;-93
2022/08/30 03:31:23;;;;;;;;;;;;;;;16.38;100.00;98522.72;4903483;29;19937;-88
2022/08/30 03:33:50;;;;;;;;;;;;;;;16.43;100.00;98522.66;4921225;29;20389;-88
2022/08/30 03:36:17;;;;;;;;;;;;;;;16.48;100.00;98516.28;4937279;29;19938;-91
2022/08/30 03:38:44;;;;;;;;;;;;;;;16.50;100.00;98518.72;4935395;29;20033;-89
2022/08/30 03:41:10;;;;;;;;;;;;;;;16.52;99.93;98516.53;4937102;29;19931;-91
2022/08/30 03:43:38;;;;;;;;;;;;;;;16.56;99.54;98521.09;4936241;29;20351;-90
2022/08/30 03:46:06;;;;;;;;;;;;;;;16.58;99.17;98527.03;4936101;29;20362;-91
2022/08/30 03:48:33;;;;;;;;;;;;;;;16.59;99.26;98519.69;4934884;29;19931;-91
2022/08/30 03:51:00;;;;;;;;;;;;;;;16.61;98.81;98531.09;4919713;29;20002;-91
2022/08/30 03:53:31;;;;;;;;;;;;;;;16.62;98.65;98530.00;4936373;29;19970;-91
2022/08/30 03:55:58;;;;;;;;;;;;;;;16.62;98.56;98535.44;4903935;29;19946;-91
2022/08/30 03:58:25;;;;;;;;;;;;;;;16.61;98.56;98531.91;4935745;29;19934;-91
2022/08/30 04:00:52;;;;;;;;;;;;;;;16.64;98.55;98535.97;4936241;29;20422;-90
2022/08/30 04:03:24;;;;;;;;;;;;;;;16.66;98.43;98534.56;4919435;29;20002;-92
2022/08/30 04:05:52;;;;;;;;;;;;;;;16.68;98.01;98526.06;4937767;29;19946;-91
2022/08/30 04:08:19;;;;;;;;;;;;;;;16.78;97.80;98525.94;4955332;29;19930;-91
2022/08/30 04:10:46;;;;;;;;;;;;;;;16.84;97.63;98529.41;4936167;29;19990;-92
2022/08/30 04:13:14;;;;;;;;;;;;;;;16.89;96.96;98526.63;4935424;29;19938;-92
2022/08/30 04:15:46;;;;;;;;;;;;;;;16.95;96.43;98535.50;4936528;29;20287;-91
2022/08/30 04:18:13;;;;;;;;;;;;;;;17.01;95.99;98531.56;4903176;29;20481;-92
2022/08/30 04:20:40;;;;;;;;;;;;;;;17.05;95.57;98538.06;4937513;29;19943;-92
2022/08/30 04:23:07;;;;;;;;;;;;;;;17.14;95.25;98535.44;4904270;29;19954;-92
2022/08/30 04:25:35;;;;;;;;;;;;;;;17.22;94.32;98541.03;4936391;29;19978;-91
2022/08/30 04:28:02;;;;;;;;;;;;;;;17.26;93.86;98536.59;4918976;29;20306;-91
2022/08/30 04:30:29;;;;;;;;;;;;;;;17.39;93.42;98547.84;4934447;29;19937;-90
2022/08/30 04:32:56;;;;;;;;;;;;;;;17.48;92.27;98540.59;4934574;29;19955;-91
2022/08/30 04:35:24;;;;;;;;;;;;;;;17.51;91.71;98542.72;4935299;29;19931;-91
2022/08/30 04:37:51;;;;;;;;;;;;;;;17.54;91.78;98545.63;4918554;29;20393;-91
2022/08/30 04:40:19;;;;;;;;;;;;;;;17.60;91.30;98540.91;4936059;29;19931;-90
2022/08/30 04:42:46;;;;;;;;;;;;;;;17.71;90.83;98536.84;4903626;29;19931;-90
2022/08/30 04:45:14;;;;;;;;;;;;;;;17.75;90.46;98540.63;4919956;29;19935;-92
2022/08/30 04:47:42;;;;;;;;;;;;;;;17.77;89.60;98537.56;4902490;29;19931;-90
2022/08/30 04:50:11;;;;;;;;;;;;;;;17.81;89.48;98535.88;4918468;29;19937;-90
2022/08/30 04:52:38;;;;;;;;;;;;;;;17.86;88.92;98533.06;4934000;29;20302;-91
2022/08/30 04:55:05;;;;;;;;;;;;;;;17.93;88.81;98528.00;4916652;29;20321;-90
2022/08/30 04:57:32;;;;;;;;;;;;;;;18.01;88.07;98531.13;4915794;29;20286;-89
2022/08/30 04:59:59;;;;;;;;;;;;;;;18.05;87.79;98527.47;4921596;29;19931;-91
2022/08/30 05:02:26;;;;;;;;;;;;;;;18.11;87.19;98530.91;4932263;29;19931;-90
2022/08/30 05:07:40;;;;;;;;;;;;;;;18.21;86.24;98543.56;4924346;29;20029;-89
2022/08/30 05:10:07;;;;;;;;;;;;;;;18.28;85.94;98543.91;4918566;29;19978;-90
2022/08/30 05:12:37;;;;;;;;;;;;;;;18.32;85.51;98540.28;4582713;29;10000692;-91
2022/08/30 05:15:05;;;;;;;;;;;;;;;18.41;85.07;98538.44;4932431;29;19958;-90
2022/08/30 05:17:32;;;;;;;;;;;;;;;18.44;84.66;98547.16;4916944;29;19931;-91
2022/08/30 05:20:00;;;;;;;;;;;;;;;18.54;84.14;98549.66;4926790;29;19974;-90
2022/08/30 05:22:28;;;;;;;;;;;;;;;18.62;83.54;98544.25;4916129;29;19941;-90
2022/08/30 05:25:06;;;;;;;;;;;;;;;18.71;82.63;98543.50;4917534;29;19994;-91
2022/08/30 05:27:33;;;;;;;;;;;;;;;18.75;82.27;98539.88;4917351;29;19931;-89
2022/08/30 05:30:05;;;;;;;;;;;;;;;18.84;82.15;98539.97;4918519;29;19938;-90
2022/08/30 05:32:32;;;;;;;;;;;;;;;18.93;82.08;98532.63;4926977;29;19937;-93
2022/08/30 05:34:59;;;;;;;;;;;;;;;19.00;81.33;98534.91;4902252;29;20158;-91
2022/08/30 05:37:26;;;;;;;;;;;;;;;19.09;81.21;98541.28;4913673;29;20350;-92
2022/08/30 05:39:53;;;;;;;;;;;;;;;18.92;81.17;98541.94;4903833;29;20002;-90
2022/08/30 05:42:20;;;;;;;;;;;;;;;18.83;82.18;98538.31;4917311;29;20422;-91
2022/08/30 05:44:51;;;;;;;;;;;;;;;18.76;82.32;98535.22;4926357;29;20337;-90
2022/08/30 05:47:19;;;;;;;;;;;;;;;18.83;81.64;98547.34;4901048;29;20390;-90
2022/08/30 05:49:46;;;;;;;;;;;;;;;19.04;80.79;98546.84;4913054;29;19931;-91
2022/08/30 05:52:14;;;;;;;;;;;;;;;19.10;80.43;98544.81;4930368;29;19931;-90
2022/08/30 05:54:41;;;;;;;;;;;;;;;19.24;79.79;98542.78;4921392;29;19959;-89
2022/08/30 05:57:08;;;;;;;;;;;;;;;19.44;79.16;98539.50;4927619;29;20034;-89
2022/08/30 05:59:35;;;;;;;;;;;;;;;19.63;78.44;98541.22;4917789;29;19962;-89
2022/08/30 06:02:02;;;;;;;;;;;;;;;19.83;77.20;98548.13;4933383;29;20328;-86
2022/08/30 06:04:38;;;;;;;;;;;;;;;19.89;77.01;98553.09;4912849;29;20287;-93
2022/08/30 06:07:11;;;;;;;;;;;;;;;19.91;76.57;98550.88;4900846;29;19932;-93
2022/08/30 06:09:47;;;;;;;;;;;;;;;19.98;76.11;98555.91;4896056;29;19931;-91
2022/08/30 06:12:15;;;;;;;;;;;;;;;19.98;76.35;98555.06;4906764;29;20226;-94
2022/08/30 06:14:53;;;;;;;;;;;;;;;20.12;75.79;98553.03;4896189;29;20686;-89
2022/08/30 06:17:24;;;;;;;;;;;;;;;20.45;74.78;98563.56;4918969;29;19979;-89
2022/08/30 06:19:51;;;;;;;;;;;;;;;20.59;74.00;98553.31;4916246;29;19990;-91
2022/08/30 06:22:18;;;;;;;;;;;;;;;20.69;73.56;98552.19;4928950;29;19931;-88
2022/08/30 06:24:45;;;;;;;;;;;;;;;20.78;73.02;98559.25;4914348;29;20402;-91
2022/08/30 06:27:30;;;;;;;;;;;;;;;20.95;71.67;98566.69;4913074;29;19979;-91
2022/08/30 06:30:00;;;;;;;;;;;;;;;21.17;71.04;98560.22;4907061;29;20369;-90
2022/08/30 06:32:30;;;;;;;;;;;;;;;21.48;70.18;98561.16;4911929;29;19986;-88
2022/08/30 06:34:57;;;;;;;;;;;;;;;21.57;68.69;98548.19;4914746;29;19931;-89
2022/08/30 06:37:28;;;;;;;;;;;;;;;21.64;68.28;98553.97;4896527;29;19931;-87
2022/08/30 06:39:56;;;;;;;;;;;;;;;21.80;68.17;98556.97;4916342;29;19986;-88
2022/08/30 06:42:30;;;;;;;;;;;;;;;21.84;66.88;98553.25;4929153;29;19932;-91
2022/08/30 06:45:01;;;;;;;;;;;;;;;21.88;67.74;98558.91;4913570;29;19931;-89
2022/08/30 06:47:41;;;;;;;;;;;;;;;22.18;66.90;98558.88;4881390;29;19938;-90
2022/08/30 06:50:12;;;;;;;;;;;;;;;22.52;65.98;98549.66;4902601;29;19935;-91
2022/08/30 06:52:43;;;;;;;;;;;;;;;22.65;63.84;98558.78;4875375;29;19931;-91
2022/08/30 06:55:18;;;;;;;;;;;;;;;22.90;63.63;98565.22;4868199;29;20033;-91
2022/08/30 06:57:45;;;;;;;;;;;;;;;23.11;63.65;98556.97;4882254;29;19931;-90
2022/08/30 07:00:14;;;;;;;;;;;;;;;23.10;63.02;98555.34;4897871;29;20008;-91
2022/08/30 07:02:41;;;;;;;;;;;;;;;22.97;61.63;98559.19;4885940;29;19982;-92
2022/08/30 07:05:10;;;;;;;;;;;;;;;22.71;62.71;98554.69;4867479;29;20266;-89
2022/08/30 07:07:43;;;;;;;;;;;;;;;22.82;63.21;98557.84;4886462;29;19931;-91
2022/08/30 07:10:10;;;;;;;;;;;;;;;22.81;62.44;98562.53;4892961;29;19935;-88
2022/08/30 07:12:38;;;;;;;;;;;;;;;22.74;63.19;98567.78;4890174;29;19938;-89
2022/08/30 07:15:06;;;;;;;;;;;;;;;22.74;63.08;98562.28;4881851;29;20323;-90
2022/08/30 07:20:22;;;;;;;;;;;;;;;22.87;62.62;98565.91;4884607;29;19974;-90
2022/08/30 07:22:49;;;;;;;;;;;;;;;22.85;62.21;98562.69;4910527;29;19938;-88
2022/08/30 07:25:18;;;;;;;;;;;;;;;22.93;62.01;98562.59;4908766;29;19978;-90
2022/08/30 07:27:45;;;;;;;;;;;;;;;23.04;61.60;98573.22;4890854;29;19966;-90
2022/08/30 07:30:18;;;;;;;;;;;;;;;23.04;61.05;98565.78;4912948;29;20017;-88
2022/08/30 07:32:45;;;;;;;;;;;;;;;23.04;61.42;98564.94;4931822;29;20424;-89
2022/08/30 07:35:17;;;;;;;;;;;;;;;23.10;61.04;98564.41;4917303;29;19931;-89
2022/08/30 07:37:46;;;;;;;;;;;;;;;23.05;61.16;98569.34;4917770;29;20002;-88
2022/08/30 07:40:13;;;;;;;;;;;;;;;22.98;60.45;98571.81;4931953;29;19931;-89
2022/08/30 07:42:47;;;;;;;;;;;;;;;22.91;60.54;98567.66;4915925;29;19967;-89
2022/08/30 07:45:14;;;;;;;;;;;;;;;23.07;60.00;98569.81;4915754;29;20013;-90
2022/08/30 07:47:47;;;;;;;;;;;;;;;23.28;59.39;98565.03;4916448;29;19935;-90
2022/08/30 07:50:14;;;;;;;;;;;;;;;23.52;58.10;98564.31;4914678;29;20386;-90
2022/08/30 07:52:41;;;;;;;;;;;;;;;23.58;58.25;98570.41;4903063;29;20034;-88
2022/08/30 07:55:16;;;;;;;;;;;;;;;23.53;58.19;98565.91;4903597;29;20007;-89
2022/08/30 07:57:43;;;;;;;;;;;;;;;23.38;58.72;98563.81;4905082;29;19932;-90
2022/08/30 08:00:10;;;;;;;;;;;;;;;23.19;59.47;98567.06;4915491;29;19982;-89
2022/08/30 08:02:39;;;;;;;;;;;;;;;23.28;59.41;98569.75;4898456;29;20414;-88
2022/08/30 08:05:13;;;;;;;;;;;;;;;23.38;58.64;98574.03;4909575;29;19932;-90
2022/08/30 08:07:44;;;;;;;;;;;;;;;23.35;58.58;98578.28;4906789;29;19966;-89
2022/08/30 08:10:12;;;;;;;;;;;;;;;23.58;57.79;98570.41;4888304;29;19985;-88
2022/08/30 08:12:39;;;;;;;;;;;;;;;23.63;57.11;98575.69;4911420;29;20005;-89
2022/08/30 08:15:31;;;;;;;;;;;;;;;23.91;56.47;98570.38;4913408;29;19931;-90
2022/08/30 08:18:01;;;;;;;;;;;;;;;24.57;54.93;98579.56;4930316;29;20291;-88
2022/08/30 08:20:28;;;;;;;;;;;;;;;24.64;54.05;98579.78;4912725;29;19935;-87
2022/08/30 08:22:55;;;;;;;;;;;;;;;24.92;53.86;98577.03;4912044;29;19931;-86
2022/08/30 08:25:22;;;;;;;;;;;;;;;25.05;53.47;98570.31;4895229;29;20251;-89
2022/08/30 08:27:49;;;;;;;;;;;;;;;25.46;51.97;98576.59;4913557;29;20236;-89
2022/08/30 08:30:18;;;;;;;;;;;;;;;25.64;51.10;98570.75;4897992;29;19978;-87
2022/08/30 08:32:45;;;;;;;;;;;;;;;26.11;50.17;98564.44;4902187;29;19938;-89
2022/08/30 08:35:12;;;;;;;;;;;;;;;26.19;49.88;98568.97;4897769;29;20031;-90
2022/08/30 08:37:39;;;;;;;;;;;;;;;26.06;49.22;98551.69;4913251;29;20415;-89
2022/08/30 08:40:07;;;;;;;;;;;;;;;25.95;49.48;98558.91;4912090;29;20288;-87
2022/08/30 08:42:34;;;;;;;;;;;;;;;25.82;48.92;98563.69;4910221;29;20010;-86
2022/08/30 08:45:01;;;;;;;;;;;;;;;25.76;49.23;98564.34;4920532;29;19936;-86
2022/08/30 08:47:34;;;;;;;;;;;;;;;26.16;47.75;98575.22;4901061;29;19931;-87
2022/08/30 08:50:02;;;;;;;;;;;;;;;26.19;47.81;98568.97;4896954;29;19935;-87
2022/08/30 08:55:20;;;;;;;;;;;;;;;27.37;45.08;98566.00;4901393;29;20394;-87
2022/08/30 08:57:47;;;;;;;;;;;;;;;27.69;44.68;98570.53;4883382;29;19935;-88
2022/08/30 09:00:40;;;;;;;;;;;;;;;28.06;43.67;98562.47;4882766;29;19935;-87
2022/08/30 09:03:07;;;;;;;;;;;;;;;28.18;42.96;98559.50;4903986;29;20349;-87
2022/08/30 09:05:35;;;;;;;;;;;;;;;27.61;43.27;98559.31;4906549;29;19932;-90
2022/08/30 09:08:06;;;;;;;;;;;;;;;27.62;43.92;98571.97;4911403;29;19931;-90
2022/08/30 09:10:35;;;;;;;;;;;;;;;28.15;43.15;98571.31;4904191;29;19985;-90
2022/08/30 09:13:17;;;;;;;;;;;;;;;28.51;41.94;98578.25;4893763;29;20574;-90
2022/08/30 09:15:45;;;;;;;;;;;;;;;28.79;40.72;98571.47;4913535;29;19981;-89
2022/08/30 09:18:19;;;;;;;;;;;;;;;28.31;41.32;98573.94;4908034;29;20395;-89
2022/08/30 09:20:48;;;;;;;;;;;;;;;28.69;41.14;98569.38;4926026;29;19935;-90
2022/08/30 09:23:26;;;;;;;;;;;;;;;28.86;40.30;98571.56;4909028;29;19931;-88
2022/08/30 09:25:57;;;;;;;;;;;;;;;28.69;41.13;98564.59;4921337;29;19966;-91
2022/08/30 09:28:30;;;;;;;;;;;;;;;29.09;39.33;98567.91;4883618;29;19938;-88
2022/08/30 09:31:05;;;;;;;;;;;;;;;28.73;39.85;98572.97;4898273;29;20032;-92
2022/08/30 09:33:42;;;;;;;;;;;;;;;28.67;40.17;98571.72;4929203;29;19931;-90
2022/08/30 09:36:25;;;;;;;;;;;;;;;29.12;39.21;98570.72;4910314;29;19945;-90
2022/08/30 09:38:56;;;;;;;;;;;;;;;29.45;39.14;98577.44;4927611;29;19938;-91
2022/08/30 09:41:43;;;;;;;;;;;;;;;29.52;38.27;98571.94;4923450;29;19930;-90
2022/08/30 09:44:14;;;;;;;;;;;;;;;29.45;39.18;98565.50;4921646;29;19930;-88
2022/08/30 09:47:00;;;;;;;;;;;;;;;29.13;39.17;98577.06;4926659;29;20448;-88
2022/08/30 09:49:30;;;;;;;;;;;;;;;28.21;40.79;98569.03;4919044;29;19930;-89
2022/08/30 09:52:11;;;;;;;;;;;;;;;27.94;41.35;98562.66;4925876;29;19935;-89
2022/08/30 09:54:55;;;;;;;;;;;;;;;28.03;41.35;98568.72;4914172;29;19932;-92
2022/08/30 09:57:25;;;;;;;;;;;;;;;28.51;40.99;98581.03;4894968;29;19959;-92
2022/08/30 10:00:21;;;;;;;;;;;;;;;28.76;40.20;98572.22;4899810;29;19935;-90
2022/08/30 10:03:00;;;;;;;;;;;;;;;29.26;39.90;98564.53;4935850;29;19938;-93
2022/08/30 10:05:46;;;;;;;;;;;;;;;29.35;39.69;98567.81;4917633;29;19931;-91
2022/08/30 10:08:50;;;;;;;;;;;;;;;28.60;40.38;98575.19;4924207;29;19974;-90
2022/08/30 10:11:26;;;;;;;;;;;;;;;28.07;40.81;98558.50;4934296;29;20390;-89
2022/08/30 10:14:26;;;;;;;;;;;;;;;28.23;40.37;98566.66;4929514;29;19942;-88
2022/08/30 10:16:59;;;;;;;;;;;;;;;28.76;39.96;98560.31;4916032;29;20033;-89
2022/08/30 10:19:35;;;;;;;;;;;;;;;28.88;39.60;98560.88;4919715;29;19982;-89
2022/08/30 10:22:16;;;;;;;;;;;;;;;28.81;39.76;98558.00;4901530;29;19978;-90
2022/08/30 10:25:05;;;;;;;;;;;;;;;29.21;38.69;98564.06;4920924;29;19930;-89
2022/08/30 10:27:37;;;;;;;;;;;;;;;28.89;39.58;98565.25;4905408;29;20363;-87
2022/08/30 10:30:06;;;;;;;;;;;;;;;28.39;40.41;98567.31;4920056;29;19978;-89
2022/08/30 10:32:33;;;;;;;;;;;;;;;28.13;40.32;98558.97;4918903;29;19981;-88
2022/08/30 10:35:05;;;;;;;;;;;;;;;28.19;40.84;98560.28;4934761;29;19990;-92
2022/08/30 10:37:41;;;;;;;;;;;;;;;28.38;40.55;98557.38;4916166;29;19981;-91
2022/08/30 10:42:59;;;;;;;;;;;;;;;28.62;39.86;98561.72;4931856;29;19930;-89
2022/08/30 10:47:00;;;;;;;;;;;;;;;30.49;37.09;98544.13;4909265;29;20449;-91
2022/08/30 10:49:38;;;;;;;;;;;;;;;32.06;34.54;98546.63;4929203;29;19930;-91
2022/08/30 10:52:39;;;;;;;;;;;;;;;;;;;;;
2022/08/30 10:56:25;;;;;;;;;;;;;;;33.47;31.74;98545.75;4879037;29;20117;-92
2022/08/30 10:59:02;;;;;;;;;;;;;;;33.57;30.92;98544.13;4870371;29;19932;-91
2022/08/30 11:01:57;;;;;;;;;;;;;;;32.00;32.87;98542.63;4890256;29;20318;-87
2022/08/30 11:04:26;;;;;;;;;;;;;;;31.68;33.52;98552.56;4894209;29;19939;-91
2022/08/30 11:06:59;;;;;;;;;;;;;;;31.75;34.20;98543.38;4880403;29;20450;-90
2022/08/30 11:09:27;;;;;;;;;;;;;;;33.06;33.01;98546.41;4896358;29;20402;-89
2022/08/30 11:12:05;;;;;;;;;;;;;;;33.53;30.78;98557.31;4890369;29;19932;-88
2022/08/30 11:14:32;;;;;;;;;;;;;;;33.04;31.33;98546.00;4875599;29;19935;-87
2022/08/30 11:17:00;;;;;;;;;;;;;;;32.89;31.43;98553.66;4886856;29;20462;-89
2022/08/30 11:19:38;;;;;;;;;;;;;;;33.86;30.38;98553.09;4871907;29;20006;-90
2022/08/30 11:22:20;;;;;;;;;;;;;;;34.35;29.15;98547.50;4895359;29;19932;-89
2022/08/30 11:25:10;;;;;;;;;;;;;;;34.18;29.37;98541.63;4907061;29;20386;-89
2022/08/30 11:27:38;;;;;;;;;;;;;;;34.89;29.02;98525.28;4918795;29;19973;-89
2022/08/30 11:30:23;;;;;;;;;;;;;;;35.72;28.04;98527.75;4904353;29;20025;-90
2022/08/30 11:32:58;;;;;;;;;;;;;;;36.43;25.74;98540.53;4935800;29;19935;-90
2022/08/30 11:35:58;;;;;;;;;;;;;;;35.93;26.48;98529.41;4932481;29;19941;-89
2022/08/30 11:38:25;;;;;;;;;;;;;;;35.11;26.45;98543.44;4869993;29;19931;-90
2022/08/30 11:40:55;;;;;;;;;;;;;;;34.61;27.13;98526.41;4882954;29;20029;-89
2022/08/30 11:43:34;;;;;;;;;;;;;;;34.54;27.14;98527.28;4897930;29;19985;-92
2022/08/30 11:46:23;;;;;;;;;;;;;;;34.15;27.25;98541.69;4876647;29;19966;-92
2022/08/30 11:48:51;;;;;;;;;;;;;;;34.29;26.66;98525.53;4876842;29;19931;-89
2022/08/30 11:51:22;;;;;;;;;;;;;;;34.62;26.37;98536.44;4857747;29;19931;-88
2022/08/30 11:53:57;;;;;;;;;;;;;;;34.56;26.37;98526.84;4874049;29;19931;-91
2022/08/30 11:56:26;;;;;;;;;;;;;;;35.39;24.67;98524.63;4878971;29;19932;-90
2022/08/30 11:58:56;;;;;;;;;;;;;;;35.20;24.30;98526.09;4863248;29;20012;-90
2022/08/30 12:01:26;;;;;;;;;;;;;;;35.26;23.56;98530.00;4875633;29;19938;-91
2022/08/30 12:04:18;;;;;;;;;;;;;;;33.85;24.52;98515.13;4891103;29;19931;-90
2022/08/30 12:06:45;;;;;;;;;;;;;;;34.07;24.88;98513.75;4884972;29;19931;-90
2022/08/30 12:09:28;;;;;;;;;;;;;;;34.87;24.26;98508.09;4877908;29;19982;-92
2022/08/30 12:12:00;;;;;;;;;;;;;;;35.32;23.72;98510.69;4896301;29;19938;-93
2022/08/30 12:14:35;;;;;;;;;;;;;;;35.33;24.36;98501.88;4920246;29;19930;-92
2022/08/30 12:20:03;;;;;;;;;;;;;;;36.06;23.64;98507.94;4934407;29;19945;-92
2022/08/30 12:22:36;;;;;;;;;;;;;;;36.08;23.65;98505.50;4935109;29;19934;-92
2022/08/30 12:25:12;;;;;;;;;;;;;;;33.93;25.95;98499.06;4913736;29;19994;-93
2022/08/30 12:27:42;;;;;;;;;;;;;;;34.27;25.57;98511.16;4902941;29;19934;-93
2022/08/30 12:30:09;;;;;;;;;;;;;;;33.98;25.93;98493.84;4906094;29;20022;-93
2022/08/30 12:32:46;;;;;;;;;;;;;;;34.86;24.97;98498.88;4908087;29;19994;-92
2022/08/30 12:35:18;;;;;;;;;;;;;;;35.34;24.34;98488.63;4912414;29;19999;-92
2022/08/30 12:37:54;;;;;;;;;;;;;;;35.59;23.87;98496.69;4904648;29;20542;-89
2022/08/30 12:40:22;;;;;;;;;;;;;;;35.56;23.95;98486.28;4912458;29;20171;-89
2022/08/30 12:42:51;;;;;;;;;;;;;;;35.90;23.88;98477.72;4915026;29;20002;-87
2022/08/30 12:45:25;;;;;;;;;;;;;;;35.63;23.84;98489.00;4930202;29;20017;-90
2022/08/30 12:47:53;;;;;;;;;;;;;;;35.87;23.83;98470.16;4907630;29;20044;-89
2022/08/30 12:50:26;;;;;;;;;;;;;;;35.75;24.23;98482.81;4902189;29;20441;-89
2022/08/30 12:53:01;;;;;;;;;;;;;;;35.16;25.10;98480.47;4917887;29;19931;-90
2022/08/30 12:55:30;;;;;;;;;;;;;;;35.57;24.83;98483.03;4902822;29;20424;-92
2022/08/30 12:58:01;;;;;;;;;;;;;;;35.53;25.04;98475.94;4922596;29;19986;-90
2022/08/30 13:00:40;;;;;;;;;;;;;;;34.08;25.38;98478.97;4920310;29;20005;-94
2022/08/30 13:03:26;;;;;;;;;;;;;;;32.44;27.21;98482.75;4900819;29;20313;-91
2022/08/30 13:05:56;;;;;;;;;;;;;;;33.38;26.14;98472.72;4915425;29;20398;-91
2022/08/30 13:08:35;;;;;;;;;;;;;;;32.89;26.43;98482.97;4920738;29;20178;-90
2022/08/30 13:11:04;;;;;;;;;;;;;;;32.13;27.15;98471.25;4895333;29;19965;-88
2022/08/30 13:13:50;;;;;;;;;;;;;;;31.14;28.60;98464.44;4910361;29;19935;-91
2022/08/30 13:16:34;;;;;;;;;;;;;;;31.22;28.77;98463.25;4894966;29;19939;-90
2022/08/30 13:19:26;;;;;;;;;;;;;;;30.65;30.59;98464.69;4895681;29;20004;-89
2022/08/30 13:21:55;;;;;;;;;;;;;;;29.89;31.99;98464.66;4888019;29;20516;-87